Stations météo

réclame
Mon MeteoGroup
Humain, Belgique (6472): Température de l'air & dewpoint: 15.09.2018 10:00:00 - 21.09.2018 10:00:00 (CEST)Humain, Belgique (6472): Vitesse du vent & gusts: 15.09.2018 10:00:00 - 21.09.2018 10:00:00 (CEST)Humain, Belgique (6472): Direction du vent: 15.09.2018 10:00:00 - 21.09.2018 10:00:00 (CEST)Humain, Belgique (6472): reduced air pressure: 15.09.2018 10:00:00 - 21.09.2018 10:00:00 (CEST)Humain, Belgique (6472): Ensoleillement: 15.09.2018 10:00:00 - 21.09.2018 10:00:00 (CEST)Humain, Belgique (6472): Quantités de précipitations: 15.09.2018 10:00:00 - 21.09.2018 10:00:00 (CEST)
Date & Time tt [°C] td [°C] ff [km/h] ff [knt] fx [km/h] fx [knt] dd ppp [hPa] sd [min] rr [mm]
21.09.2018 10:00:00 16,1 11,7 30 16 54 29 SW 1008,0 0 0,6
21.09.2018 09:00:00 17,4 10,9 29 16 56 30 SSW 1007,2 0 0,0
21.09.2018 08:00:00 17,9 9,6 32 18 53 29 SSW 1007,2 0 0,1
21.09.2018 07:00:00 18,5 8,9 30 16 53 28 SSW 1007,3 0 0,0
21.09.2018 06:00:00 18,9 10,2 29 16 48 26 SSW 1007,6 0 0,0
21.09.2018 05:00:00 18,9 10,8 24 13 39 21 SSW 1008,2 0 0,0
21.09.2018 04:00:00 18,9 10,2 25 13 38 21 SSW 1009,1 0 0,0
21.09.2018 03:00:00 18,9 10,6 17 9 30 16 S 1010,0 0 0,0
21.09.2018 02:00:00 17,9 11,1 11 6 32 18 S 1010,6 0 0,0
21.09.2018 01:00:00 18,5 11,4 16 8 42 23 S 1011,4 0 0,0
21.09.2018 00:00:00 19,1 11,1 19 11 35 19 S 1011,8 0 0,0
20.09.2018 23:00:00 19,1 11,3 16 9 34 19 S 1012,5 0 0,0
20.09.2018 22:00:00 19,0 11,3 16 8 31 17 S 1013,3 0 0,0
20.09.2018 21:00:00 19,2 10,9 11 6 27 15 S 1014,0 0 0,0
20.09.2018 20:00:00 19,7 10,1 18 10 40 22 SSW 1014,5 0 0,0
20.09.2018 19:00:00 21,7 9,8 19 11 40 22 S 1014,8 52 0,0
20.09.2018 18:00:00 23,1 10,0 25 14 40 21 SSW 1015,1 60 0,0
20.09.2018 17:00:00 23,8 10,4 17 9 41 22 S 1015,7 60 0,0
20.09.2018 16:00:00 23,6 10,8 24 13 36 19 SSW 1016,8 60 0,0
20.09.2018 15:00:00 22,7 10,9 19 11 37 20 SSW 1017,5 60 0,0
20.09.2018 14:00:00 22,2 11,1 22 12 42 23 SSW 1018,3 60 0,0
20.09.2018 13:00:00 20,8 11,5 27 14 42 23 SW 1019,0 58 0,0
20.09.2018 12:00:00 19,8 11,9 29 16 42 23 SSW 1019,4 47 0,0
20.09.2018 11:00:00 18,6 12,3 21 11 31 17 SSW 1019,5 40 0,0
20.09.2018 10:00:00 16,6 12,3 16 8 22 12 SSW 1020,0 29 0,0
20.09.2018 09:00:00 15,5 12,1 11 6 18 10 S 1019,9 2 0,0
20.09.2018 08:00:00 14,4 11,4 7 4 12 6 S 1019,9 0 0,0
20.09.2018 07:00:00 13,8 10,9 5 3 13 7 S 1020,0 0 0,0
20.09.2018 06:00:00 14,1 10,9 8 5 17 9 S 1020,1 0 0,0
20.09.2018 05:00:00 13,5 10,6 14 7 17 9 SSE 1020,2 0 0,0
20.09.2018 04:00:00 13,4 10,4 7 4 12 6 S 1020,3 0 0,0
20.09.2018 03:00:00 14,3 10,6 5 3 10 6 S 1020,0 0 0,0
20.09.2018 02:00:00 14,9 10,7 4 2 10 5 S 1020,3 0 0,0
20.09.2018 01:00:00 15,2 10,9 8 4 10 5 SSE 1020,7 0 0,0
20.09.2018 00:00:00 15,9 11,0 6 3 8 5 S 1021,0 0 0,0
19.09.2018 23:00:00 17,0 11,1 6 4 13 7 SSW 1020,6 0 0,0
19.09.2018 22:00:00 17,9 11,1 8 4 10 6 SSW 1020,1 0 0,0
19.09.2018 21:00:00 19,2 10,9 9 5 18 10 SW 1019,9 0 0,0
19.09.2018 20:00:00 20,6 10,9 14 8 - - SW 1019,3 22 0,0
19.09.2018 19:00:00 22,8 10,8 22 12 39 21 SW 1018,7 60 0,0
19.09.2018 18:00:00 24,2 11,1 24 13 44 24 SW 1017,8 60 0,0
19.09.2018 17:00:00 24,7 11,2 27 15 44 24 SSW 1017,7 60 0,0
19.09.2018 16:00:00 24,6 12,5 29 16 46 25 SSW 1017,8 58 0,1
19.09.2018 15:00:00 24,1 13,0 26 14 49 27 SW 1018,4 49 0,0
19.09.2018 14:00:00 23,2 13,9 29 16 50 27 SW 1018,7 16 0,0
19.09.2018 13:00:00 22,8 14,6 30 16 49 26 SSW 1018,8 48 0,0
19.09.2018 12:00:00 22,2 15,4 29 16 49 26 SSW 1018,7 53 0,0
19.09.2018 11:00:00 21,4 15,8 24 13 44 24 SSW 1018,6 60 0,0
19.09.2018 10:00:00 18,1 15,0 8 5 21 12 SW 1019,3 35 0,0
19.09.2018 09:00:00 17,4 14,9 13 7 21 11 SSW 1018,9 54 0,0
19.09.2018 08:00:00 15,6 13,8 11 6 22 12 S 1018,8 0 0,0
19.09.2018 07:00:00 14,6 13,1 10 5 14 7 S 1019,3 0 0,0
19.09.2018 06:00:00 14,4 12,9 8 4 15 8 S 1019,0 0 0,0
19.09.2018 05:00:00 14,8 13,3 12 6 17 9 SSE 1018,9 0 0,0
19.09.2018 04:00:00 14,6 13,0 11 6 18 10 SSE 1018,9 0 0,0
19.09.2018 03:00:00 14,8 12,5 5 3 8 5 S 1019,2 0 0,0
19.09.2018 02:00:00 15,8 13,2 7 4 9 5 SSE 1018,6 0 0,0
19.09.2018 01:00:00 16,7 13,2 5 3 9 5 SW 1018,5 0 0,0
19.09.2018 00:00:00 17,5 13,2 6 3 10 6 S 1018,1 0 0,0
18.09.2018 23:00:00 18,0 13,0 4 2 14 7 SSW 1017,6 0 0,0
18.09.2018 22:00:00 19,1 13,2 10 5 23 12 SW 1017,5 0 0,0
18.09.2018 21:00:00 20,2 12,8 13 7 21 12 SSW 1016,9 0 0,0
18.09.2018 20:00:00 21,7 12,4 14 8 42 23 SW 1015,9 23 0,0
18.09.2018 19:00:00 24,5 13,1 24 13 41 22 SW 1014,9 60 0,0
18.09.2018 18:00:00 24,2 12,6 22 12 36 20 SSW 1014,7 59 0,0
18.09.2018 17:00:00 25,7 11,7 15 8 43 23 SW 1014,4 60 0,0
18.09.2018 16:00:00 25,2 10,0 29 16 50 27 SSW 1014,5 56 0,0
18.09.2018 15:00:00 26,2 9,2 29 16 40 22 SW 1013,9 41 0,0
18.09.2018 14:00:00 26,1 9,0 22 12 45 25 SW 1014,0 59 0,0
18.09.2018 13:00:00 26,0 8,2 31 17 49 26 SW 1013,9 58 0,0
18.09.2018 12:00:00 24,8 12,4 22 12 36 19 SSW 1013,8 60 0,0
18.09.2018 11:00:00 23,0 11,9 24 13 31 17 SSW 1014,3 60 0,0
18.09.2018 10:00:00 21,7 10,7 19 11 30 16 S 1014,2 60 0,0
18.09.2018 09:00:00 20,0 10,0 13 7 32 18 S 1014,0 60 0,0
18.09.2018 08:00:00 19,0 9,3 14 8 30 16 S 1013,6 17 0,0
18.09.2018 07:00:00 18,4 8,8 8 5 23 12 S 1013,6 0 0,0
18.09.2018 06:00:00 19,0 9,0 11 6 32 17 S 1013,7 0 0,0
18.09.2018 05:00:00 18,7 9,5 13 7 24 13 S 1013,9 0 0,0
18.09.2018 04:00:00 17,3 9,1 10 5 19 10 S 1014,3 0 0,0
18.09.2018 03:00:00 18,2 8,6 10 6 20 11 SSE 1014,5 0 0,0
18.09.2018 02:00:00 18,3 8,8 18 10 22 12 SSE 1014,8 0 0,0
18.09.2018 01:00:00 17,6 7,7 10 5 11 6 SSE 1015,4 0 0,0
18.09.2018 00:00:00 16,7 6,5 4 2 13 7 SSW 1015,9 0 0,0
17.09.2018 23:00:00 16,0 6,4 13 7 15 8 E 1016,1 0 0,0
17.09.2018 22:00:00 16,0 5,8 12 7 17 9 E 1016,6 0 0,0
17.09.2018 21:00:00 19,0 4,5 8 5 10 6 ESE 1016,5 0 0,0
17.09.2018 20:00:00 20,8 2,0 4 2 11 6 SE 1016,4 17 0,0
17.09.2018 19:00:00 23,1 2,6 11 6 21 11 SSE 1016,3 60 0,0
17.09.2018 18:00:00 24,9 1,7 11 6 21 12 SSW 1016,4 60 0,0
17.09.2018 17:00:00 25,4 0,9 9 5 24 13 S 1017,0 60 0,0
17.09.2018 16:00:00 25,7 2,4 9 5 25 13 S 1017,6 60 0,0
17.09.2018 15:00:00 25,1 3,4 9 5 21 12 SW 1018,4 60 0,0
17.09.2018 14:00:00 23,7 4,9 7 4 18 10 WSW 1019,3 60 0,0
17.09.2018 13:00:00 22,1 7,5 5 3 10 5 WSW 1019,8 60 0,0
17.09.2018 12:00:00 20,7 8,5 4 2 10 5 SSW 1020,5 60 0,0
17.09.2018 11:00:00 18,4 8,5 4 2 10 6 SSW 1021,3 60 0,0
17.09.2018 10:00:00 14,4 8,7 4 2 7 4 NNE 1021,8 60 0,0
17.09.2018 09:00:00 10,7 7,0 4 2 10 5 N 1022,2 60 0,0
17.09.2018 08:00:00 9,5 6,6 11 6 13 7 E 1021,8 19 0,0
17.09.2018 07:00:00 8,5 6,2 8 4 12 6 E 1022,4 0 0,0
17.09.2018 06:00:00 8,7 6,2 6 3 13 7 E 1022,4 0 0,0
17.09.2018 05:00:00 9,4 6,8 8 4 9 5 E 1022,0 0 0,0
17.09.2018 04:00:00 9,7 6,1 5 3 13 7 ESE 1022,4 0 0,0
17.09.2018 03:00:00 10,9 6,9 9 5 11 6 SE 1022,2 0 0,0
17.09.2018 02:00:00 11,1 7,1 7 4 10 5 ESE 1021,9 0 0,0
17.09.2018 01:00:00 11,6 7,2 7 4 10 5 ESE 1022,1 0 0,0
17.09.2018 00:00:00 14,0 7,3 8 4 9 5 SSE 1022,3 0 0,0
16.09.2018 23:00:00 16,0 7,6 4 2 8 5 S 1021,9 0 0,0
16.09.2018 22:00:00 17,0 6,7 5 3 7 4 SSE 1021,6 0 0,0
16.09.2018 21:00:00 18,2 6,1 5 3 9 5 SSW 1021,1 0 0,0
16.09.2018 20:00:00 19,4 6,2 7 4 14 7 SSW 1020,6 24 0,0
16.09.2018 19:00:00 21,0 5,9 10 5 16 8 SW 1020,2 36 0,0
16.09.2018 18:00:00 22,0 5,8 7 4 19 10 SW 1019,8 47 0,0
16.09.2018 17:00:00 23,2 5,9 4 2 18 10 SE 1019,8 60 0,0
16.09.2018 16:00:00 22,9 6,1 7 4 22 12 SSW 1020,5 60 0,0
16.09.2018 15:00:00 22,3 6,0 9 5 20 11 SE 1021,1 60 0,0
16.09.2018 14:00:00 21,5 6,7 7 4 20 11 SE 1021,7 60 0,0
16.09.2018 13:00:00 20,4 6,7 7 4 23 12 S 1022,4 60 0,0
16.09.2018 12:00:00 19,3 6,9 9 5 20 11 SSE 1023,1 60 0,0
16.09.2018 11:00:00 16,7 9,8 4 2 8 5 SW 1024,2 60 0,0
16.09.2018 10:00:00 13,7 8,8 6 3 8 5 ESE 1024,6 60 0,0
16.09.2018 09:00:00 9,1 7,4 4 2 9 5 NE 1024,9 60 0,0
16.09.2018 08:00:00 9,0 7,5 7 4 10 5 E 1024,8 19 0,0
16.09.2018 07:00:00 8,8 6,6 11 6 13 7 E 1024,9 0 0,0
16.09.2018 06:00:00 8,7 6,6 10 6 14 8 E 1025,0 0 0,0
16.09.2018 05:00:00 8,9 7,1 14 8 16 9 E 1025,3 0 0,0
16.09.2018 04:00:00 8,5 6,7 13 7 14 8 E 1025,7 0 0,0
16.09.2018 03:00:00 9,5 7,2 9 5 13 7 E 1026,2 0 0,0
16.09.2018 02:00:00 9,7 7,0 11 6 13 7 E 1026,7 0 0,0
16.09.2018 01:00:00 10,7 7,6 8 5 12 6 E 1026,9 0 0,0
16.09.2018 00:00:00 10,5 7,4 8 5 11 6 ESE 1027,1 0 0,0
15.09.2018 23:00:00 11,3 7,7 6 4 9 5 ESE 1027,0 0 0,0
15.09.2018 22:00:00 12,8 8,2 8 4 11 6 E 1026,9 0 0,0
15.09.2018 21:00:00 15,1 7,1 6 4 8 4 E 1026,2 0 0,0
15.09.2018 20:00:00 15,9 7,5 4 2 6 3 NNE 1025,9 11 0,0
15.09.2018 19:00:00 17,6 7,8 4 2 7 4 N 1025,3 27 0,0
15.09.2018 18:00:00 16,8 8,0 6 4 16 8 NW 1025,7 22 0,0
15.09.2018 17:00:00 17,4 8,4 7 4 14 7 WNW 1025,8 8 0,0
15.09.2018 16:00:00 17,4 8,2 10 5 20 11 WNW 1025,8 0 0,0
15.09.2018 15:00:00 18,3 8,2 10 6 17 9 WSW 1025,8 13 0,0
15.09.2018 14:00:00 16,7 8,9 11 6 24 13 WNW 1026,3 25 0,0
15.09.2018 13:00:00 16,6 8,5 11 6 25 13 WSW 1026,4 44 0,0
15.09.2018 12:00:00 15,5 10,4 11 6 22 12 WNW 1026,7 55 0,0
15.09.2018 11:00:00 13,3 11,0 14 8 22 12 WSW 1026,7 29 0,0
15.09.2018 10:00:00 12,0 10,5 13 7 19 10 SW 1026,6 0 0,0

tt = Température de l'air
td = dewpoint
ff = Vitesse du vent
fx = gusts
dd = Direction du vent
ppp = reduced air pressure
sd = Ensoleillement
rr = Quantités de précipitations

stations d'obs. à proximité